createdAt,value
2018-02-09T00:07:08.014Z,76.92
2018-02-09T00:09:36.459Z,77.46
2018-02-09T00:12:04.774Z,77.77
2018-02-09T00:14:33.412Z,77.88
2018-02-09T00:17:01.742Z,78.78
2018-02-09T00:19:30.837Z,78.53
2018-02-09T00:21:59.930Z,78.11
2018-02-09T00:24:29.005Z,78.32
2018-02-09T00:26:57.342Z,78.00
2018-02-09T00:29:25.646Z,78.11
2018-02-09T00:31:54.028Z,78.25
2018-02-09T00:34:22.532Z,78.82
2018-02-09T00:36:51.632Z,78.98
2018-02-09T00:39:20.738Z,78.15
2018-02-09T00:41:49.055Z,78.28
2018-02-09T00:44:17.388Z,78.14
2018-02-09T00:46:45.771Z,78.06
2018-02-09T00:49:14.086Z,78.55
2018-02-09T00:51:42.393Z,78.31
2018-02-09T00:54:10.719Z,77.93
2018-02-09T00:56:39.050Z,77.69
2018-02-09T00:59:07.362Z,77.94
2018-02-09T01:01:35.684Z,77.89
2018-02-09T01:04:04.063Z,77.73
2018-02-09T01:06:33.151Z,77.89
2018-02-09T01:09:01.546Z,78.63
2018-02-09T01:11:33.530Z,78.54
2018-02-09T01:14:02.667Z,78.55
2018-02-09T01:16:30.987Z,77.87
2018-02-09T01:19:00.112Z,79.01
2018-02-09T01:21:28.619Z,79.21
2018-02-09T01:23:57.205Z,79.05
2018-02-09T01:26:25.515Z,79.32
2018-02-09T01:28:54.007Z,79.55
2018-02-09T01:31:23.105Z,78.84
2018-02-09T01:33:52.187Z,78.92
2018-02-09T01:36:21.283Z,78.89
2018-02-09T01:38:50.663Z,78.70
2018-02-09T01:41:18.982Z,79.30
2018-02-09T01:43:47.296Z,78.90
2018-02-09T01:46:15.617Z,79.13
2018-02-09T01:48:44.703Z,79.04
2018-02-09T01:51:13.840Z,78.66
2018-02-09T01:53:42.257Z,79.09
2018-02-09T01:56:10.560Z,79.14
2018-02-09T01:58:39.653Z,78.98
2018-02-09T02:01:07.971Z,78.52
2018-02-09T02:03:36.363Z,78.81
2018-02-09T02:06:04.666Z,78.84
2018-02-09T02:08:33.091Z,79.20
2018-02-09T02:11:01.406Z,78.44
2018-02-09T02:13:29.788Z,78.36
2018-02-09T02:15:59.028Z,77.67
2018-02-09T02:18:27.405Z,78.03
2018-02-09T02:20:55.884Z,78.25
2018-02-09T02:23:24.262Z,78.54
2018-02-09T02:25:53.246Z,77.46
2018-02-09T02:28:22.354Z,76.66
2018-02-09T02:30:50.741Z,76.48
2018-02-09T02:33:19.050Z,76.33
2018-02-09T02:35:47.377Z,75.96
2018-02-09T02:38:15.711Z,75.72
2018-02-09T02:40:44.136Z,75.81
2018-02-09T02:43:12.469Z,75.71
2018-02-09T02:45:42.295Z,75.51
2018-02-09T02:48:10.784Z,75.59
2018-02-09T02:50:39.948Z,75.30
2018-02-09T02:53:08.321Z,75.45
2018-02-09T02:55:36.922Z,76.25
2018-02-09T02:58:05.255Z,75.77
2018-02-09T03:00:34.311Z,75.40
2018-02-09T03:03:03.483Z,75.75
2018-02-09T03:05:31.856Z,75.48
2018-02-09T03:08:00.228Z,75.93
2018-02-09T03:10:29.611Z,75.68
2018-02-09T03:12:58.087Z,75.93
2018-02-09T03:15:26.431Z,75.53
2018-02-09T03:17:58.796Z,76.75
2018-02-09T03:20:27.227Z,77.84
2018-02-09T03:22:55.561Z,78.78
2018-02-09T03:25:23.874Z,80.50
2018-02-09T03:27:52.200Z,79.93
2018-02-09T03:30:21.284Z,80.35
2018-02-09T03:32:50.415Z,80.27
2018-02-09T03:35:18.735Z,79.79
2018-02-09T03:37:47.043Z,80.44
2018-02-09T03:40:16.194Z,79.91
2018-02-09T03:42:44.543Z,79.97
2018-02-09T03:45:12.873Z,79.25
2018-02-09T03:47:41.175Z,79.22
2018-02-09T03:50:09.505Z,79.06
2018-02-09T03:52:37.949Z,79.20
2018-02-09T03:55:06.278Z,77.65
2018-02-09T03:57:34.880Z,77.04
2018-02-09T04:00:03.964Z,76.55
2018-02-09T04:02:33.096Z,76.46
2018-02-09T04:05:01.538Z,76.41
2018-02-09T04:07:30.686Z,75.90
2018-02-09T04:09:58.994Z,76.09
2018-02-09T04:12:27.321Z,76.55
2018-02-09T04:14:55.637Z,76.73
2018-02-09T04:17:23.990Z,76.66
2018-02-09T04:19:52.567Z,76.43
2018-02-09T04:22:21.054Z,76.21
2018-02-09T04:24:49.392Z,76.46
2018-02-09T04:27:17.836Z,77.00
2018-02-09T04:29:46.918Z,76.55
2018-02-09T04:32:15.267Z,76.37
2018-02-09T04:34:43.573Z,76.54
2018-02-09T04:37:11.952Z,76.58
2018-02-09T04:39:40.419Z,76.43
2018-02-09T04:42:08.796Z,76.02
2018-02-09T04:44:37.135Z,75.95
2018-02-09T04:47:05.438Z,76.00
2018-02-09T04:49:33.846Z,75.88
2018-02-09T04:52:02.233Z,76.17
2018-02-09T04:54:31.319Z,76.02
2018-02-09T04:57:00.524Z,76.25
2018-02-09T04:59:28.934Z,76.15
2018-02-09T05:01:57.235Z,75.78
2018-02-09T05:04:25.583Z,75.91
2018-02-09T05:06:54.029Z,75.51
2018-02-09T05:09:22.608Z,76.04
2018-02-09T05:11:51.686Z,75.08
2018-02-09T05:14:20.017Z,74.67
2018-02-09T05:16:48.338Z,74.93
2018-02-09T05:19:16.711Z,75.21
2018-02-09T05:21:45.032Z,75.70
2018-02-09T05:24:14.126Z,76.02
2018-02-09T05:26:42.545Z,75.69
2018-02-09T05:29:10.895Z,75.76
2018-02-09T05:31:39.229Z,75.90
2018-02-09T05:34:07.631Z,75.88
2018-02-09T05:36:36.059Z,76.27
2018-02-09T05:39:04.449Z,76.32
2018-02-09T05:41:32.882Z,76.53
2018-02-09T05:44:01.219Z,76.26
2018-02-09T05:46:29.539Z,76.27
2018-02-09T05:48:58.152Z,76.21
2018-02-09T05:51:26.714Z,76.31
2018-02-09T05:53:55.130Z,76.71
2018-02-09T05:56:23.479Z,76.65
2018-02-09T05:58:51.811Z,76.19
2018-02-09T06:01:20.680Z,75.69
2018-02-09T06:03:49.191Z,76.13
2018-02-09T06:06:18.588Z,77.64
2018-02-09T06:08:47.723Z,76.85
2018-02-09T06:11:16.912Z,76.64
2018-02-09T06:13:46.869Z,76.19
2018-02-09T06:16:15.628Z,76.47
2018-02-09T06:18:44.197Z,77.11
2018-02-09T06:21:12.830Z,76.00
2018-02-09T06:23:42.240Z,75.07
2018-02-09T06:26:11.345Z,77.37
2018-02-09T06:28:40.599Z,76.43
2018-02-09T06:31:09.071Z,76.42
2018-02-09T06:33:37.485Z,74.82
2018-02-09T06:36:06.016Z,75.03
2018-02-09T06:38:34.632Z,75.55
2018-02-09T06:41:03.964Z,74.55
2018-02-09T06:43:32.580Z,74.86
2018-02-09T06:46:00.908Z,74.65
2018-02-09T06:48:29.287Z,74.66
2018-02-09T06:50:58.362Z,74.33
2018-02-09T06:53:27.488Z,74.90
2018-02-09T06:55:56.723Z,74.40
2018-02-09T06:58:25.051Z,74.33
2018-02-09T07:00:54.186Z,74.26
2018-02-09T07:03:22.622Z,74.36
2018-02-09T07:05:51.724Z,74.35
2018-02-09T07:08:20.846Z,73.69
2018-02-09T07:10:49.190Z,74.33
2018-02-09T07:13:18.424Z,73.51
2018-02-09T07:15:46.783Z,74.60
2018-02-09T07:18:15.111Z,74.36
2018-02-09T07:20:43.440Z,74.25
2018-02-09T07:23:11.819Z,73.50
2018-02-09T07:25:40.126Z,73.73
2018-02-09T07:28:08.512Z,74.62
2018-02-09T07:30:37.165Z,74.17
2018-02-09T07:33:05.512Z,73.94
2018-02-09T07:35:34.638Z,73.94
2018-02-09T07:38:02.970Z,74.38
2018-02-09T07:40:32.081Z,74.49
2018-02-09T07:43:01.245Z,74.36
2018-02-09T07:45:29.619Z,73.96
2018-02-09T07:47:58.784Z,74.33
2018-02-09T07:50:27.098Z,73.90
2018-02-09T07:52:55.544Z,74.09
2018-02-09T07:55:23.877Z,73.44
2018-02-09T07:57:52.958Z,74.57
2018-02-09T08:00:21.271Z,74.06
2018-02-09T08:02:49.598Z,74.21
2018-02-09T08:05:17.949Z,73.91
2018-02-09T08:07:46.295Z,73.87
2018-02-09T08:10:14.724Z,73.72
2018-02-09T08:12:43.175Z,73.38
2018-02-09T08:15:11.512Z,73.46
2018-02-09T08:17:40.579Z,73.70
2018-02-09T08:20:10.924Z,73.65
2018-02-09T08:22:40.285Z,72.76
2018-02-09T08:25:09.598Z,73.62
2018-02-09T08:27:38.125Z,73.89
2018-02-09T08:30:06.737Z,72.99
2018-02-09T08:32:35.144Z,73.47
2018-02-09T08:35:03.742Z,72.95
2018-02-09T08:37:33.444Z,73.31
2018-02-09T08:40:03.113Z,73.33
2018-02-09T08:42:32.740Z,73.66
2018-02-09T08:45:01.243Z,73.61
2018-02-09T08:47:30.597Z,74.25
2018-02-09T08:50:00.089Z,74.59
2018-02-09T08:52:28.747Z,74.75
2018-02-09T08:54:58.286Z,73.48
2018-02-09T08:57:27.051Z,73.98
2018-02-09T08:59:55.489Z,74.36
2018-02-09T09:02:24.968Z,73.87
2018-02-09T09:04:53.655Z,73.88
2018-02-09T09:07:22.958Z,73.92
2018-02-09T09:09:51.719Z,73.53
2018-02-09T09:12:20.574Z,73.61
2018-02-09T09:14:50.037Z,74.60
2018-02-09T09:17:18.676Z,73.71
2018-02-09T09:19:47.862Z,73.82
2018-02-09T09:22:16.538Z,73.28
2018-02-09T09:24:45.665Z,73.16
2018-02-09T09:27:14.440Z,72.59
2018-02-09T09:29:43.342Z,73.70
2018-02-09T09:32:11.919Z,73.07
2018-02-09T09:34:40.716Z,73.21
2018-02-09T09:37:11.036Z,73.20
2018-02-09T09:39:39.639Z,72.73
2018-02-09T09:42:08.609Z,72.78
2018-02-09T09:44:38.443Z,73.04
2018-02-09T09:47:08.337Z,72.88
2018-02-09T09:49:36.987Z,73.30
2018-02-09T09:52:05.600Z,73.61
2018-02-09T09:54:34.143Z,72.77
2018-02-09T09:57:03.709Z,72.57
2018-02-09T09:59:32.334Z,72.47
2018-02-09T10:02:00.907Z,74.03
2018-02-09T10:04:30.267Z,72.61
2018-02-09T10:06:58.994Z,72.42
2018-02-09T10:09:28.037Z,71.92
2018-02-09T10:11:57.608Z,73.31
2018-02-09T10:14:26.365Z,72.08
2018-02-09T10:16:55.368Z,72.97
2018-02-09T10:19:24.232Z,73.03
2018-02-09T10:21:52.684Z,73.85
2018-02-09T10:24:21.037Z,72.33
2018-02-09T10:26:50.148Z,72.17
2018-02-09T10:29:18.515Z,72.54
2018-02-09T10:31:47.021Z,72.47
2018-02-09T10:34:15.491Z,73.01
2018-02-09T10:36:44.149Z,73.04
2018-02-09T10:39:12.732Z,73.32
2018-02-09T10:41:41.565Z,72.27
2018-02-09T10:44:09.942Z,72.10
2018-02-09T10:46:38.351Z,71.88
2018-02-09T10:49:07.739Z,71.67
2018-02-09T10:51:36.584Z,71.89
2018-02-09T10:54:05.108Z,71.77
2018-02-09T10:56:33.727Z,71.77
2018-02-09T10:59:03.163Z,71.34
2018-02-09T11:01:37.661Z,72.60
2018-02-09T11:04:06.161Z,71.97
2018-02-09T11:06:35.227Z,71.21
2018-02-09T11:09:03.920Z,71.74
2018-02-09T11:11:33.028Z,72.42
2018-02-09T11:14:01.607Z,72.64
2018-02-09T11:16:30.239Z,71.28
2018-02-09T11:18:59.595Z,71.95
2018-02-09T11:21:28.076Z,71.58
2018-02-09T11:23:56.965Z,72.18
2018-02-09T11:26:25.652Z,71.69
2018-02-09T11:28:54.430Z,71.56
2018-02-09T11:31:22.919Z,71.82
2018-02-09T11:33:51.433Z,71.38
2018-02-09T11:36:20.116Z,71.31
2018-02-09T11:38:49.131Z,71.26
2018-02-09T11:41:19.648Z,71.15
2018-02-09T11:43:48.579Z,71.68
2018-02-09T11:46:18.167Z,71.40
2018-02-09T11:48:47.948Z,71.56
2018-02-09T11:51:17.237Z,71.22
2018-02-09T11:53:45.599Z,71.38
2018-02-09T11:56:15.171Z,71.06
2018-02-09T11:58:44.261Z,70.54
2018-02-09T12:01:13.137Z,71.22
2018-02-09T12:03:42.659Z,70.78
2018-02-09T12:06:11.318Z,71.74
2018-02-09T12:08:41.174Z,70.82
2018-02-09T12:11:09.883Z,70.88
2018-02-09T12:13:38.438Z,71.00
2018-02-09T12:16:07.368Z,70.80
2018-02-09T12:18:36.325Z,70.44
2018-02-09T12:21:04.933Z,70.63
2018-02-09T12:23:33.377Z,70.57
2018-02-09T12:26:02.942Z,70.01
2018-02-09T12:28:32.282Z,70.27
2018-02-09T12:31:01.089Z,70.29
2018-02-09T12:33:29.990Z,70.31
2018-02-09T12:35:58.759Z,69.86
2018-02-09T12:38:28.729Z,70.20
2018-02-09T12:40:58.070Z,69.12
2018-02-09T12:43:26.677Z,69.46
2018-02-09T12:45:56.668Z,69.86
2018-02-09T12:48:25.667Z,69.52
2018-02-09T12:50:54.568Z,69.26
2018-02-09T12:53:23.217Z,69.28
2018-02-09T12:55:52.255Z,69.96
2018-02-09T12:58:22.048Z,69.90
2018-02-09T13:00:50.818Z,69.27
2018-02-09T13:03:19.720Z,69.53
2018-02-09T13:05:48.223Z,69.45
2018-02-09T13:08:17.539Z,69.50
2018-02-09T13:10:46.894Z,69.08
2018-02-09T13:13:15.986Z,69.41
2018-02-09T13:15:45.946Z,69.12
2018-02-09T13:18:33.248Z,69.94
2018-02-09T13:21:02.536Z,69.22
2018-02-09T13:23:49.352Z,69.71
2018-02-09T13:26:18.315Z,70.05
2018-02-09T13:29:04.110Z,68.93
2018-02-09T13:31:33.006Z,68.99
2018-02-09T13:34:01.809Z,69.29
2018-02-09T13:39:42.136Z,69.46
2018-02-09T13:42:10.736Z,69.26
2018-02-09T13:44:40.551Z,69.31
2018-02-09T13:47:09.402Z,69.30
2018-02-09T13:49:38.164Z,68.38
2018-02-09T13:52:06.957Z,68.85
2018-02-09T13:54:35.747Z,68.37
2018-02-09T13:57:04.716Z,68.50
2018-02-09T13:59:33.740Z,68.90
2018-02-09T14:02:02.415Z,68.87
2018-02-09T14:04:31.017Z,68.96
2018-02-09T14:06:59.436Z,68.81
2018-02-09T14:09:28.290Z,69.15
2018-02-09T14:11:57.113Z,68.65
2018-02-09T14:14:25.850Z,69.26
2018-02-09T14:16:54.924Z,69.59
2018-02-09T14:19:24.290Z,68.73
2018-02-09T14:21:53.599Z,68.39
2018-02-09T14:24:23.336Z,69.32
2018-02-09T14:26:52.371Z,68.99
2018-02-09T14:29:21.686Z,68.45
2018-02-09T14:31:50.525Z,68.56
2018-02-09T14:34:20.421Z,68.60
2018-02-09T14:36:49.689Z,69.24
2018-02-09T14:39:18.386Z,68.86
2018-02-09T14:41:47.277Z,68.84
2018-02-09T14:44:21.814Z,69.13
2018-02-09T14:46:51.184Z,69.41
2018-02-09T14:49:20.309Z,68.97
2018-02-09T14:51:48.972Z,69.43
2018-02-09T14:54:17.910Z,69.35
2018-02-09T14:56:47.138Z,70.37
2018-02-09T14:59:16.247Z,69.75
2018-02-09T15:01:45.549Z,70.20
2018-02-09T15:04:16.693Z,70.15
2018-02-09T15:06:45.760Z,70.40
2018-02-09T15:09:14.716Z,69.92
2018-02-09T15:11:44.137Z,70.47
2018-02-09T15:14:12.981Z,70.20
2018-02-09T15:16:42.051Z,70.08
2018-02-09T15:19:10.603Z,70.35
2018-02-09T15:21:39.800Z,70.98
2018-02-09T15:24:09.692Z,70.27
2018-02-09T15:26:39.037Z,70.76
2018-02-09T15:29:07.667Z,70.64
2018-02-09T15:31:36.366Z,70.66
2018-02-09T15:34:05.568Z,70.80
2018-02-09T15:36:34.291Z,70.95
2018-02-09T15:39:03.419Z,70.38
2018-02-09T15:41:32.776Z,70.97
2018-02-09T15:44:01.612Z,71.05
2018-02-09T15:46:30.523Z,71.34
2018-02-09T15:48:59.287Z,71.06
2018-02-09T15:51:28.116Z,70.74
2018-02-09T15:53:58.171Z,70.60
2018-02-09T15:56:26.750Z,70.59
2018-02-09T15:58:57.862Z,70.31
2018-02-09T16:01:26.891Z,70.95
2018-02-09T16:03:55.685Z,69.93
2018-02-09T16:06:24.654Z,70.01
2018-02-09T16:08:53.491Z,70.50
2018-02-09T16:11:22.329Z,70.24
2018-02-09T16:13:51.015Z,71.10
2018-02-09T16:16:19.802Z,70.86
2018-02-09T16:18:48.356Z,71.11
2018-02-09T16:21:16.989Z,71.21
2018-02-09T16:23:45.581Z,71.77
2018-02-09T16:26:15.221Z,71.21
2018-02-09T16:28:43.957Z,70.77
2018-02-09T16:31:13.177Z,71.02
2018-02-09T16:33:42.184Z,70.79
2018-02-09T16:36:11.800Z,71.28
2018-02-09T16:38:41.407Z,70.68
2018-02-09T16:41:11.329Z,70.81
2018-02-09T16:43:40.135Z,71.02
2018-02-09T16:46:09.202Z,70.72
2018-02-09T16:48:38.332Z,70.58
2018-02-09T16:51:06.662Z,70.48
2018-02-09T16:53:34.968Z,70.42
2018-02-09T16:56:03.484Z,70.73
2018-02-09T16:58:32.079Z,70.84
2018-02-09T17:01:00.671Z,70.62
2018-02-09T17:03:29.002Z,70.73
2018-02-09T17:05:57.522Z,70.81
2018-02-09T17:08:26.391Z,70.09
2018-02-09T17:10:55.577Z,69.81
2018-02-09T17:13:23.915Z,70.47
2018-02-09T17:15:53.012Z,70.52
2018-02-09T17:18:22.104Z,70.16
2018-02-09T17:20:51.192Z,69.36
2018-02-09T17:25:54.431Z,70.53
2018-02-09T17:28:22.758Z,70.66
2018-02-09T17:30:51.084Z,71.06
2018-02-09T17:33:19.601Z,70.82
2018-02-09T17:35:48.069Z,70.90
2018-02-09T17:38:16.544Z,71.20
2018-02-09T17:40:44.894Z,71.15
2018-02-09T17:43:13.202Z,71.47
2018-02-09T17:48:16.323Z,71.21
2018-02-09T17:50:44.690Z,71.46
2018-02-09T17:53:12.994Z,70.31
2018-02-09T17:55:42.382Z,70.08
2018-02-09T17:58:10.732Z,69.77
2018-02-09T18:00:39.143Z,69.84
2018-02-09T18:03:07.602Z,69.97
2018-02-09T18:05:37.827Z,70.50
2018-02-09T18:08:06.203Z,70.96
2018-02-09T18:10:34.783Z,70.21
2018-02-09T18:13:03.106Z,70.30
2018-02-09T18:15:32.212Z,69.65
2018-02-09T18:18:00.538Z,68.97
2018-02-09T18:20:30.440Z,69.72
2018-02-09T18:22:58.793Z,69.18
2018-02-09T18:25:27.276Z,69.82
2018-02-09T18:27:55.567Z,70.24
2018-02-09T18:30:24.024Z,70.01
2018-02-09T18:32:52.504Z,70.13
2018-02-09T18:35:20.979Z,69.93
2018-02-09T18:37:50.216Z,69.93
2018-02-09T18:40:18.543Z,69.93
2018-02-09T18:42:46.927Z,70.48
2018-02-09T18:45:15.339Z,70.26
2018-02-09T18:47:44.114Z,70.55
2018-02-09T18:50:12.454Z,70.80
2018-02-09T18:52:41.581Z,71.01
2018-02-09T18:55:10.051Z,71.24
2018-02-09T18:57:38.500Z,71.30
2018-02-09T19:00:08.419Z,70.59
2018-02-09T19:02:37.605Z,70.58
2018-02-09T19:05:06.686Z,70.78
2018-02-09T19:07:35.188Z,71.32
2018-02-09T19:10:03.532Z,71.25
2018-02-09T19:12:31.877Z,70.78
2018-02-09T19:15:00.780Z,71.14
2018-02-09T19:17:29.102Z,71.43
2018-02-09T19:19:58.217Z,71.62
2018-02-09T19:22:26.582Z,71.45
2018-02-09T19:24:55.718Z,71.24
2018-02-09T19:27:24.062Z,71.20
2018-02-09T19:29:52.370Z,71.42
2018-02-09T19:32:20.779Z,71.58
2018-02-09T19:34:49.340Z,71.64
2018-02-09T19:37:17.692Z,71.87
2018-02-09T19:39:46.234Z,71.70
2018-02-09T19:42:15.625Z,72.05
2018-02-09T19:44:44.773Z,71.78
2018-02-09T19:47:13.139Z,71.69
2018-02-09T19:49:42.178Z,72.42
2018-02-09T19:52:10.532Z,72.24
2018-02-09T19:54:38.900Z,72.73
2018-02-09T19:57:07.277Z,73.21
2018-02-09T19:59:35.623Z,74.21
2018-02-09T20:02:04.213Z,74.79
2018-02-09T20:04:32.732Z,74.09
2018-02-09T20:07:01.251Z,74.12
2018-02-09T20:09:30.378Z,74.67
2018-02-09T20:11:58.768Z,73.85
2018-02-09T20:14:27.152Z,73.14
2018-02-09T20:16:55.528Z,73.76
2018-02-09T20:19:23.951Z,73.43
2018-02-09T20:21:52.281Z,72.91
2018-02-09T20:24:20.633Z,73.16
2018-02-09T20:26:48.983Z,72.91
2018-02-09T20:29:18.071Z,72.45
2018-02-09T20:31:47.284Z,72.62
2018-02-09T20:34:16.409Z,72.10
2018-02-09T20:36:44.787Z,72.42
2018-02-09T20:39:13.127Z,72.40
2018-02-09T20:41:42.264Z,73.09
2018-02-09T20:44:10.605Z,72.49
2018-02-09T20:46:39.708Z,72.46
2018-02-09T20:49:08.086Z,72.66
2018-02-09T20:51:36.429Z,72.34
2018-02-09T20:54:04.777Z,72.30
2018-02-09T20:56:33.145Z,72.39
2018-02-09T20:59:01.545Z,71.62
2018-02-09T21:01:30.024Z,72.07
2018-02-09T21:03:58.496Z,72.04
2018-02-09T21:06:26.826Z,71.87
2018-02-09T21:08:55.176Z,71.47
2018-02-09T21:11:23.528Z,71.46
2018-02-09T21:13:51.884Z,71.83
2018-02-09T21:16:20.260Z,71.70
2018-02-09T21:18:48.587Z,71.80
2018-02-09T21:21:17.772Z,71.62
2018-02-09T21:23:46.887Z,71.66
2018-02-09T21:26:16.019Z,72.00
2018-02-09T21:28:44.554Z,71.58
2018-02-09T21:31:13.639Z,72.32
2018-02-09T21:33:41.997Z,71.91
2018-02-09T21:36:10.336Z,72.24
2018-02-09T21:38:38.657Z,72.46
2018-02-09T21:41:07.016Z,72.24
2018-02-09T21:43:35.404Z,72.02
2018-02-09T21:46:04.440Z,72.21
2018-02-09T21:48:33.536Z,71.89
2018-02-09T21:51:02.670Z,72.00
2018-02-09T21:53:31.003Z,71.64
2018-02-09T21:56:00.123Z,71.85
2018-02-09T21:58:28.439Z,71.61
2018-02-09T22:00:56.797Z,71.50
2018-02-09T22:03:25.188Z,71.15
2018-02-09T22:05:53.526Z,71.62
2018-02-09T22:08:21.950Z,71.53
2018-02-09T22:10:50.272Z,71.17
2018-02-09T22:13:18.597Z,71.96
2018-02-09T22:15:46.930Z,71.37
2018-02-09T22:18:15.435Z,71.42
2018-02-09T22:20:43.784Z,71.79
2018-02-09T22:23:12.091Z,72.02
2018-02-09T22:25:40.461Z,71.14
2018-02-09T22:28:08.834Z,71.70
2018-02-09T22:30:37.135Z,71.15
2018-02-09T22:33:05.485Z,71.91
2018-02-09T22:35:34.015Z,71.77
2018-02-09T22:38:02.563Z,71.63
2018-02-09T22:40:30.900Z,71.01
2018-02-09T22:42:59.334Z,72.05
2018-02-09T22:45:27.933Z,71.57
2018-02-09T22:47:56.257Z,71.08
2018-02-09T22:50:24.611Z,71.81
2018-02-09T22:52:52.951Z,71.42
2018-02-09T22:55:21.295Z,71.61
2018-02-09T22:57:49.806Z,71.94
2018-02-09T23:00:18.388Z,71.80
2018-02-09T23:02:46.753Z,72.13
2018-02-09T23:05:15.113Z,72.24
2018-02-09T23:07:43.452Z,72.12
2018-02-09T23:10:12.574Z,72.22
2018-02-09T23:12:40.898Z,72.20
2018-02-09T23:15:09.554Z,71.75
2018-02-09T23:17:37.920Z,71.87
2018-02-09T23:20:06.329Z,71.74
2018-02-09T23:22:34.674Z,72.03
2018-02-09T23:25:03.013Z,71.41
2018-02-09T23:27:32.080Z,71.49
2018-02-09T23:30:01.328Z,71.19
2018-02-09T23:32:29.764Z,71.74
2018-02-09T23:34:58.162Z,71.60
2018-02-09T23:37:27.284Z,71.79
2018-02-09T23:39:55.588Z,72.17
2018-02-09T23:42:23.992Z,71.55
2018-02-09T23:44:52.346Z,71.52
2018-02-09T23:47:20.741Z,72.04
2018-02-09T23:49:49.015Z,71.79
2018-02-09T23:52:17.343Z,71.69
2018-02-09T23:54:45.662Z,71.62
2018-02-09T23:57:14.797Z,71.37
2018-02-09T23:59:44.153Z,71.54
